createdAt,value
2018-01-01T00:00:58.774Z,19.95
2018-01-01T00:03:24.611Z,19.94
2018-01-01T00:05:50.749Z,19.92
2018-01-01T00:08:16.774Z,19.91
2018-01-01T00:10:42.753Z,19.97
2018-01-01T00:13:08.902Z,19.96
2018-01-01T00:15:34.858Z,19.92
2018-01-01T00:18:01.157Z,19.88
2018-01-01T00:20:27.010Z,19.92
2018-01-01T00:22:52.839Z,19.88
2018-01-01T00:25:18.863Z,19.90
2018-01-01T00:27:44.748Z,19.91
2018-01-01T00:30:10.601Z,19.93
2018-01-01T00:32:37.061Z,19.99
2018-01-01T00:35:04.239Z,20.08
2018-01-01T00:37:30.254Z,20.11
2018-01-01T00:39:56.073Z,20.04
2018-01-01T00:42:21.886Z,20.07
2018-01-01T00:44:47.856Z,20.09
2018-01-01T00:47:13.894Z,20.02
2018-01-01T00:49:39.719Z,20.09
2018-01-01T00:52:06.510Z,20.02
2018-01-01T00:54:34.651Z,19.95
2018-01-01T00:57:00.837Z,19.92
2018-01-01T00:59:26.670Z,19.91
2018-01-01T01:01:52.525Z,19.98
2018-01-01T01:04:18.415Z,20.01
2018-01-01T01:06:44.249Z,19.97
2018-01-01T01:09:10.086Z,20.00
2018-01-01T01:11:35.906Z,20.02
2018-01-01T01:14:01.897Z,19.92
2018-01-01T01:16:27.716Z,19.98
2018-01-01T01:18:53.870Z,19.92
2018-01-01T01:21:19.677Z,20.00
2018-01-01T01:23:45.489Z,20.00
2018-01-01T01:26:11.355Z,19.93
2018-01-01T01:28:37.213Z,19.93
2018-01-01T01:31:03.031Z,19.97
2018-01-01T01:33:28.903Z,19.95
2018-01-01T01:35:54.940Z,19.91
2018-01-01T01:38:20.862Z,19.92
2018-01-01T01:40:46.707Z,19.88
2018-01-01T01:43:12.534Z,19.91
2018-01-01T01:45:38.397Z,19.96
2018-01-01T01:48:04.226Z,19.99
2018-01-01T01:50:30.046Z,19.90
2018-01-01T01:52:55.976Z,19.91
2018-01-01T01:55:21.798Z,19.90
2018-01-01T01:57:47.681Z,19.93
2018-01-01T02:00:13.499Z,19.97
2018-01-01T02:02:39.318Z,19.90
2018-01-01T02:05:05.150Z,19.91
2018-01-01T02:07:31.139Z,19.91
2018-01-01T02:09:56.978Z,19.93
2018-01-01T02:12:22.814Z,19.86
2018-01-01T02:14:48.630Z,19.86
2018-01-01T02:17:14.448Z,19.87
2018-01-01T02:19:40.270Z,19.84
2018-01-01T02:22:06.242Z,19.83
2018-01-01T02:24:32.060Z,19.84
2018-01-01T02:26:57.871Z,19.84
2018-01-01T02:29:23.693Z,19.80
2018-01-01T02:31:49.517Z,19.88
2018-01-01T02:34:15.335Z,20.02
2018-01-01T02:36:41.158Z,20.15
2018-01-01T02:39:07.742Z,20.28
2018-01-01T02:41:33.635Z,20.17
2018-01-01T02:43:59.468Z,20.24
2018-01-01T02:46:25.622Z,20.22
2018-01-01T02:48:51.507Z,20.19
2018-01-01T02:51:17.320Z,20.19
2018-01-01T02:53:43.349Z,20.18
2018-01-01T02:56:09.198Z,20.13
2018-01-01T02:58:35.069Z,19.99
2018-01-01T03:01:00.877Z,20.09
2018-01-01T03:03:26.763Z,20.08
2018-01-01T03:05:52.583Z,20.01
2018-01-01T03:08:18.446Z,19.93
2018-01-01T03:10:44.295Z,20.01
2018-01-01T03:13:10.165Z,20.07
2018-01-01T03:15:36.091Z,20.02
2018-01-01T03:18:02.178Z,19.92
2018-01-01T03:20:28.026Z,20.01
2018-01-01T03:22:53.850Z,20.00
2018-01-01T03:25:19.699Z,19.94
2018-01-01T03:27:45.522Z,19.96
2018-01-01T03:30:11.387Z,20.01
2018-01-01T03:32:37.242Z,20.00
2018-01-01T03:35:03.111Z,19.95
2018-01-01T03:37:28.934Z,19.91
2018-01-01T03:39:54.846Z,19.94
2018-01-01T03:42:20.658Z,19.96
2018-01-01T03:44:46.481Z,19.99
2018-01-01T03:47:12.289Z,19.93
2018-01-01T03:49:38.225Z,19.93
2018-01-01T03:52:04.086Z,19.91
2018-01-01T03:54:29.915Z,19.93
2018-01-01T03:56:55.805Z,19.86
2018-01-01T03:59:21.631Z,19.98
2018-01-01T04:01:47.525Z,19.96
2018-01-01T04:04:13.385Z,19.98
2018-01-01T04:06:39.242Z,19.99
2018-01-01T04:09:05.105Z,19.92
2018-01-01T04:11:30.924Z,19.84
2018-01-01T04:13:56.766Z,19.81
2018-01-01T04:16:22.697Z,19.86
2018-01-01T04:18:48.673Z,19.82
2018-01-01T04:21:14.843Z,19.94
2018-01-01T04:23:40.657Z,20.07
2018-01-01T04:26:06.521Z,20.00
2018-01-01T04:28:32.342Z,20.08
2018-01-01T04:30:58.165Z,20.01
2018-01-01T04:33:24.035Z,20.08
2018-01-01T04:35:49.849Z,19.98
2018-01-01T04:38:15.799Z,19.99
2018-01-01T04:40:41.931Z,19.93
2018-01-01T04:43:07.755Z,20.00
2018-01-01T04:45:33.613Z,20.04
2018-01-01T04:47:59.919Z,20.03
2018-01-01T04:50:26.217Z,19.99
2018-01-01T04:52:52.143Z,19.91
2018-01-01T04:55:17.950Z,19.85
2018-01-01T04:57:43.838Z,19.86
2018-01-01T05:00:09.675Z,19.89
2018-01-01T05:02:36.095Z,19.88
2018-01-01T05:05:02.517Z,19.89
2018-01-01T05:07:28.431Z,19.84
2018-01-01T05:09:54.275Z,19.86
2018-01-01T05:12:20.152Z,19.85
2018-01-01T05:14:46.061Z,19.92
2018-01-01T05:17:11.882Z,19.85
2018-01-01T05:19:37.694Z,19.88
2018-01-01T05:22:03.519Z,19.85
2018-01-01T05:24:29.378Z,19.87
2018-01-01T05:26:55.771Z,19.89
2018-01-01T05:29:21.821Z,19.87
2018-01-01T05:31:47.643Z,19.89
2018-01-01T05:34:13.466Z,19.93
2018-01-01T05:36:39.311Z,19.89
2018-01-01T05:39:05.651Z,19.87
2018-01-01T05:41:31.568Z,19.85
2018-01-01T05:43:57.373Z,19.89
2018-01-01T05:46:23.198Z,19.86
2018-01-01T05:48:49.021Z,19.85
2018-01-01T05:51:14.837Z,19.90
2018-01-01T05:53:40.653Z,19.95
2018-01-01T05:56:06.482Z,19.89
2018-01-01T05:58:32.823Z,19.87
2018-01-01T06:00:59.158Z,19.92
2018-01-01T06:03:24.982Z,19.87
2018-01-01T06:05:50.804Z,19.84
2018-01-01T06:08:16.669Z,19.83
2018-01-01T06:10:42.498Z,19.85
2018-01-01T06:13:08.325Z,19.85
2018-01-01T06:15:34.146Z,19.85
2018-01-01T06:17:59.963Z,19.83
2018-01-01T06:20:25.892Z,19.69
2018-01-01T06:22:51.923Z,19.69
2018-01-01T06:25:17.753Z,19.77
2018-01-01T06:27:43.574Z,19.86
2018-01-01T06:30:09.406Z,19.89
2018-01-01T06:32:35.240Z,19.95
2018-01-01T06:35:01.123Z,20.05
2018-01-01T06:37:26.941Z,20.07
2018-01-01T06:39:53.155Z,20.13
2018-01-01T06:42:19.433Z,19.96
2018-01-01T06:44:45.475Z,19.92
2018-01-01T06:47:11.950Z,20.00
2018-01-01T06:49:37.778Z,20.03
2018-01-01T06:52:04.216Z,19.93
2018-01-01T06:54:30.619Z,19.94
2018-01-01T06:56:56.549Z,19.90
2018-01-01T06:59:22.908Z,19.83
2018-01-01T07:01:48.782Z,19.79
2018-01-01T07:04:16.812Z,19.94
2018-01-01T07:06:42.682Z,19.82
2018-01-01T07:09:08.581Z,19.80
2018-01-01T07:11:34.824Z,19.82
2018-01-01T07:14:01.234Z,19.80
2018-01-01T07:16:27.461Z,19.76
2018-01-01T07:18:53.469Z,19.79
2018-01-01T07:21:19.310Z,19.72
2018-01-01T07:23:45.258Z,19.78
2018-01-01T07:26:11.343Z,19.70
2018-01-01T07:28:37.170Z,19.73
2018-01-01T07:31:02.999Z,19.68
2018-01-01T07:33:28.958Z,19.74
2018-01-01T07:35:54.887Z,19.67
2018-01-01T07:38:20.703Z,19.72
2018-01-01T07:40:46.911Z,19.76
2018-01-01T07:43:12.742Z,19.78
2018-01-01T07:45:38.572Z,19.71
2018-01-01T07:48:04.405Z,19.69
2018-01-01T07:50:30.247Z,19.70
2018-01-01T07:52:56.068Z,19.71
2018-01-01T07:55:21.938Z,19.67
2018-01-01T07:57:47.798Z,19.58
2018-01-01T08:00:13.630Z,19.57
2018-01-01T08:02:39.489Z,19.67
2018-01-01T08:05:05.355Z,19.51
2018-01-01T08:07:31.230Z,19.58
2018-01-01T08:09:57.063Z,19.56
2018-01-01T08:12:22.870Z,19.53
2018-01-01T08:14:48.689Z,19.56
2018-01-01T08:17:14.577Z,19.68
2018-01-01T08:19:40.403Z,19.80
2018-01-01T08:22:06.270Z,19.69
2018-01-01T08:24:32.090Z,19.82
2018-01-01T08:26:57.907Z,19.89
2018-01-01T08:29:23.755Z,19.81
2018-01-01T08:31:49.571Z,19.69
2018-01-01T08:34:15.381Z,19.74
2018-01-01T08:36:41.202Z,19.78
2018-01-01T08:39:07.039Z,19.74
2018-01-01T08:41:33.317Z,19.69
2018-01-01T08:43:59.577Z,19.92
2018-01-01T08:46:27.556Z,19.78
2018-01-01T08:48:53.428Z,19.72
2018-01-01T08:51:19.239Z,19.81
2018-01-01T08:53:45.183Z,19.81
2018-01-01T08:56:11.117Z,19.75
2018-01-01T08:58:36.950Z,19.74
2018-01-01T09:01:02.942Z,19.80
2018-01-01T09:03:29.023Z,19.74
2018-01-01T09:05:55.202Z,19.70
2018-01-01T09:08:21.127Z,19.70
2018-01-01T09:10:47.049Z,19.74
2018-01-01T09:13:12.857Z,19.70
2018-01-01T09:15:38.897Z,19.67
2018-01-01T09:18:04.950Z,19.68
2018-01-01T09:20:31.031Z,19.66
2018-01-01T09:22:57.862Z,19.69
2018-01-01T09:25:24.169Z,19.75
2018-01-01T09:27:50.415Z,19.84
2018-01-01T09:30:16.245Z,19.82
2018-01-01T09:32:42.058Z,19.89
2018-01-01T09:35:07.966Z,19.90
2018-01-01T09:37:33.851Z,20.04
2018-01-01T09:39:59.662Z,20.00
2018-01-01T09:42:26.007Z,20.01
2018-01-01T09:44:51.829Z,19.98
2018-01-01T09:47:17.665Z,20.16
2018-01-01T09:49:43.473Z,20.08
2018-01-01T09:52:16.357Z,20.09
2018-01-01T09:54:42.174Z,20.04
2018-01-01T09:57:07.983Z,20.02
2018-01-01T09:59:33.814Z,20.18
2018-01-01T10:01:59.887Z,19.91
2018-01-01T10:04:25.908Z,19.92
2018-01-01T10:06:51.754Z,19.91
2018-01-01T10:09:17.676Z,19.99
2018-01-01T10:11:43.523Z,19.91
2018-01-01T10:14:09.354Z,19.95
2018-01-01T10:16:35.217Z,19.91
2018-01-01T10:19:01.046Z,19.91
2018-01-01T10:21:26.990Z,19.89
2018-01-01T10:23:53.029Z,19.87
2018-01-01T10:26:19.202Z,19.83
2018-01-01T10:28:45.052Z,19.76
2018-01-01T10:31:10.910Z,19.84
2018-01-01T10:33:36.733Z,19.94
2018-01-01T10:36:02.643Z,19.87
2018-01-01T10:38:28.488Z,19.86
2018-01-01T10:40:54.350Z,19.88
2018-01-01T10:43:20.639Z,19.83
2018-01-01T10:45:46.870Z,19.80
2018-01-01T10:48:13.284Z,19.84
2018-01-01T10:50:39.192Z,19.86
2018-01-01T10:53:05.014Z,19.74
2018-01-01T10:55:30.829Z,19.81
2018-01-01T10:57:56.641Z,19.82
2018-01-01T11:00:22.455Z,19.82
2018-01-01T11:02:48.269Z,19.90
2018-01-01T11:05:14.211Z,20.01
2018-01-01T11:07:40.034Z,20.05
2018-01-01T11:10:05.856Z,20.09
2018-01-01T11:12:31.674Z,20.04
2018-01-01T11:14:57.538Z,20.16
2018-01-01T11:17:23.430Z,20.08
2018-01-01T11:19:49.287Z,20.10
2018-01-01T11:22:15.274Z,19.95
2018-01-01T11:24:41.356Z,20.00
2018-01-01T11:27:07.215Z,20.15
2018-01-01T11:29:33.031Z,19.97
2018-01-01T11:31:58.847Z,19.95
2018-01-01T11:34:24.669Z,19.96
2018-01-01T11:36:50.482Z,19.96
2018-01-01T11:39:16.302Z,19.89
2018-01-01T11:41:42.114Z,19.85
2018-01-01T11:44:07.931Z,19.84
2018-01-01T11:46:33.750Z,19.86
2018-01-01T11:48:59.566Z,19.83
2018-01-01T11:51:25.486Z,20.00
2018-01-01T11:53:51.297Z,19.90
2018-01-01T11:56:17.110Z,19.85
2018-01-01T11:58:42.938Z,19.82
2018-01-01T12:01:08.766Z,19.85
2018-01-01T12:03:34.635Z,19.84
2018-01-01T12:06:00.497Z,19.81
2018-01-01T12:08:26.330Z,19.85
2018-01-01T12:10:52.142Z,19.91
2018-01-01T12:13:17.958Z,19.89
2018-01-01T12:15:43.771Z,19.91
2018-01-01T12:18:09.770Z,19.87
2018-01-01T12:20:35.579Z,19.85
2018-01-01T12:23:01.443Z,19.90
2018-01-01T12:25:27.268Z,19.87
2018-01-01T12:27:53.079Z,19.85
2018-01-01T12:30:18.889Z,19.83
2018-01-01T12:32:44.743Z,19.89
2018-01-01T12:35:10.614Z,19.82
2018-01-01T12:37:36.430Z,19.87
2018-01-01T12:40:02.286Z,19.86
2018-01-01T12:42:28.108Z,19.87
2018-01-01T12:44:53.981Z,19.81
2018-01-01T12:47:19.838Z,19.80
2018-01-01T12:49:45.666Z,19.91
2018-01-01T12:52:11.643Z,19.85
2018-01-01T12:54:37.449Z,19.86
2018-01-01T12:57:03.262Z,19.78
2018-01-01T12:59:29.086Z,19.90
2018-01-01T13:01:54.934Z,19.99
2018-01-01T13:04:20.754Z,19.94
2018-01-01T13:06:46.608Z,20.06
2018-01-01T13:09:12.468Z,20.02
2018-01-01T13:11:38.371Z,20.07
2018-01-01T13:14:04.989Z,20.12
2018-01-01T13:16:30.814Z,20.18
2018-01-01T13:18:56.728Z,20.01
2018-01-01T13:21:22.597Z,19.91
2018-01-01T13:23:48.596Z,19.89
2018-01-01T13:26:14.522Z,19.85
2018-01-01T13:28:40.443Z,19.97
2018-01-01T13:31:06.382Z,19.91
2018-01-01T13:33:32.252Z,19.91
2018-01-01T13:35:58.118Z,19.89
2018-01-01T13:38:23.983Z,19.85
2018-01-01T13:40:49.805Z,19.80
2018-01-01T13:43:15.609Z,19.81
2018-01-01T13:45:41.437Z,19.87
2018-01-01T13:48:07.259Z,19.84
2018-01-01T13:50:33.310Z,19.81
2018-01-01T13:52:59.253Z,19.82
2018-01-01T13:55:25.074Z,19.78
2018-01-01T13:57:50.882Z,19.80
2018-01-01T14:00:16.926Z,19.83
2018-01-01T14:02:42.871Z,19.81
2018-01-01T14:05:08.695Z,19.83
2018-01-01T14:07:34.546Z,19.83
2018-01-01T14:10:00.470Z,19.88
2018-01-01T14:12:26.287Z,19.76
2018-01-01T14:14:52.101Z,19.74
2018-01-01T14:17:17.908Z,19.71
2018-01-01T14:19:43.722Z,19.74
2018-01-01T14:22:09.594Z,19.66
2018-01-01T14:24:35.411Z,19.75
2018-01-01T14:27:01.229Z,19.75
2018-01-01T14:29:27.534Z,20.03
2018-01-01T14:31:53.757Z,20.04
2018-01-01T14:34:19.606Z,20.01
2018-01-01T14:36:45.538Z,20.10
2018-01-01T14:39:11.350Z,20.04
2018-01-01T14:41:37.322Z,19.91
2018-01-01T14:44:03.197Z,19.83
2018-01-01T14:46:29.017Z,19.93
2018-01-01T14:48:55.100Z,19.86
2018-01-01T14:51:21.194Z,19.95
2018-01-01T14:53:47.030Z,19.97
2018-01-01T14:56:12.852Z,19.89
2018-01-01T14:58:38.681Z,19.82
2018-01-01T15:01:04.494Z,19.82
2018-01-01T15:03:30.306Z,19.73
2018-01-01T15:05:56.297Z,19.79
2018-01-01T15:08:22.110Z,19.78
2018-01-01T15:10:47.930Z,19.85
2018-01-01T15:13:13.862Z,19.82
2018-01-01T15:15:39.718Z,19.74
2018-01-01T15:18:05.533Z,19.81
2018-01-01T15:20:31.354Z,19.79
2018-01-01T15:22:57.413Z,19.79
2018-01-01T15:25:23.260Z,19.79
2018-01-01T15:27:49.442Z,19.71
2018-01-01T15:30:15.261Z,19.71
2018-01-01T15:32:41.124Z,19.74
2018-01-01T15:35:06.973Z,19.75
2018-01-01T15:37:32.790Z,19.74
2018-01-01T15:39:58.623Z,19.78
2018-01-01T15:42:24.465Z,19.60
2018-01-01T15:44:50.353Z,19.66
2018-01-01T15:47:16.300Z,19.75
2018-01-01T15:49:42.126Z,19.82
2018-01-01T15:52:08.102Z,20.00
2018-01-01T15:54:33.938Z,20.08
2018-01-01T15:56:59.973Z,19.98
2018-01-01T15:59:25.810Z,19.93
2018-01-01T16:01:51.635Z,19.94
2018-01-01T16:04:17.438Z,19.86
2018-01-01T16:06:43.438Z,19.92
2018-01-01T16:09:09.324Z,19.92
2018-01-01T16:11:35.146Z,19.89
2018-01-01T16:14:01.090Z,19.92
2018-01-01T16:16:26.903Z,19.93
2018-01-01T16:18:52.814Z,19.92
2018-01-01T16:21:19.150Z,19.82
2018-01-01T16:23:45.492Z,19.76
2018-01-01T16:26:12.230Z,19.83
2018-01-01T16:28:40.309Z,19.81
2018-01-01T16:31:06.202Z,19.82
2018-01-01T16:33:32.093Z,19.76
2018-01-01T16:35:57.965Z,19.78
2018-01-01T16:38:23.821Z,19.80
2018-01-01T16:40:49.656Z,19.78
2018-01-01T16:43:15.474Z,19.65
2018-01-01T16:45:41.282Z,19.70
2018-01-01T16:48:07.230Z,19.78
2018-01-01T16:50:33.058Z,19.76
2018-01-01T16:52:59.134Z,19.74
2018-01-01T16:55:25.008Z,19.76
2018-01-01T16:57:50.981Z,19.66
2018-01-01T17:00:16.793Z,19.62
2018-01-01T17:02:42.738Z,19.72
2018-01-01T17:05:08.585Z,19.74
2018-01-01T17:07:34.466Z,19.83
2018-01-01T17:10:00.278Z,19.78
2018-01-01T17:12:26.093Z,19.86
2018-01-01T17:14:51.906Z,20.01
2018-01-01T17:17:17.876Z,19.97
2018-01-01T17:19:43.714Z,19.99
2018-01-01T17:22:09.522Z,20.06
2018-01-01T17:24:35.396Z,20.13
2018-01-01T17:27:01.205Z,20.04
2018-01-01T17:29:27.079Z,19.97
2018-01-01T17:31:53.094Z,19.92
2018-01-01T17:34:19.134Z,20.05
2018-01-01T17:36:44.966Z,20.04
2018-01-01T17:39:10.798Z,20.11
2018-01-01T17:41:36.638Z,20.09
2018-01-01T17:44:02.470Z,20.02
2018-01-01T17:46:28.438Z,19.85
2018-01-01T17:48:54.274Z,19.92
2018-01-01T17:51:20.260Z,19.84
2018-01-01T17:53:46.256Z,19.88
2018-01-01T17:56:12.321Z,20.01
2018-01-01T17:58:38.149Z,19.98
2018-01-01T18:01:03.981Z,19.77
2018-01-01T18:03:29.802Z,19.75
2018-01-01T18:05:55.627Z,19.73
2018-01-01T18:08:21.536Z,19.81
2018-01-01T18:10:47.514Z,19.77
2018-01-01T18:13:13.358Z,19.72
2018-01-01T18:15:39.171Z,19.73
2018-01-01T18:18:04.991Z,19.57
2018-01-01T18:20:30.810Z,19.63
2018-01-01T18:22:56.622Z,19.56
2018-01-01T18:25:22.458Z,19.59
2018-01-01T18:27:48.298Z,19.62
2018-01-01T18:30:14.127Z,19.64
2018-01-01T18:32:39.954Z,19.64
2018-01-01T18:35:05.762Z,19.64
2018-01-01T18:37:31.570Z,19.65
2018-01-01T18:39:57.386Z,19.68
2018-01-01T18:42:23.198Z,19.65
2018-01-01T18:44:49.014Z,19.70
2018-01-01T18:47:14.826Z,19.74
2018-01-01T18:49:40.634Z,19.85
2018-01-01T18:52:06.706Z,19.78
2018-01-01T18:54:32.731Z,19.79
2018-01-01T18:56:58.582Z,19.68
2018-01-01T18:59:24.399Z,19.70
2018-01-01T19:01:50.254Z,19.65
2018-01-01T19:04:16.066Z,19.63
2018-01-01T19:06:41.958Z,19.74
2018-01-01T19:09:07.962Z,19.72
2018-01-01T19:11:39.228Z,19.69
2018-01-01T19:14:08.846Z,19.67
2018-01-01T19:16:36.265Z,19.58
2018-01-01T19:19:03.749Z,19.64
2018-01-01T19:21:29.562Z,19.65
2018-01-01T19:23:55.589Z,19.62
2018-01-01T19:26:21.398Z,19.59
2018-01-01T19:28:47.217Z,19.60
2018-01-01T19:31:13.290Z,19.69
2018-01-01T19:33:39.179Z,19.61
2018-01-01T19:36:05.038Z,19.63
2018-01-01T19:38:31.051Z,19.65
2018-01-01T19:40:57.006Z,19.63
2018-01-01T19:43:23.430Z,19.56
2018-01-01T19:45:49.362Z,19.59
2018-01-01T19:48:15.334Z,19.58
2018-01-01T19:50:41.310Z,19.54
2018-01-01T19:53:07.221Z,19.58
2018-01-01T19:55:33.029Z,19.63
2018-01-01T19:57:58.978Z,19.61
2018-01-01T20:00:24.790Z,19.57
2018-01-01T20:02:50.694Z,19.61
2018-01-01T20:05:17.633Z,19.67
2018-01-01T20:07:43.738Z,19.67
2018-01-01T20:10:09.843Z,19.62
2018-01-01T20:12:35.782Z,19.67
2018-01-01T20:15:01.650Z,19.66
2018-01-01T20:17:27.610Z,19.73
2018-01-01T20:19:54.406Z,19.61
2018-01-01T20:22:20.262Z,19.61
2018-01-01T20:24:46.921Z,19.66
2018-01-01T20:27:12.859Z,19.56
2018-01-01T20:29:38.822Z,19.58
2018-01-01T20:32:05.926Z,19.71
2018-01-01T20:34:31.729Z,19.60
2018-01-01T20:36:57.822Z,19.65
2018-01-01T20:39:23.698Z,19.65
2018-01-01T20:41:49.544Z,19.62
2018-01-01T20:44:15.418Z,19.62
2018-01-01T20:46:41.254Z,19.62
2018-01-01T20:49:07.062Z,19.62
2018-01-01T20:51:33.260Z,19.60
2018-01-01T20:53:59.082Z,19.59
2018-01-01T20:56:24.980Z,19.57
2018-01-01T20:58:51.715Z,19.59
2018-01-01T21:01:17.517Z,19.63
2018-01-01T21:03:43.326Z,19.58
2018-01-01T21:06:09.476Z,19.58
2018-01-01T21:08:35.297Z,19.60
2018-01-01T21:11:01.122Z,19.60
2018-01-01T21:13:27.229Z,19.60
2018-01-01T21:15:53.141Z,19.64
2018-01-01T21:18:18.879Z,19.61
2018-01-01T21:20:45.778Z,19.62
2018-01-01T21:23:11.652Z,19.59
2018-01-01T21:25:37.458Z,19.61
2018-01-01T21:28:03.542Z,19.57
2018-01-01T21:30:29.354Z,19.66
2018-01-01T21:32:55.165Z,19.57
2018-01-01T21:35:21.366Z,19.58
2018-01-01T21:37:47.929Z,19.57
2018-01-01T21:40:13.890Z,19.60
2018-01-01T21:42:42.278Z,19.49
2018-01-01T21:45:10.186Z,19.50
2018-01-01T21:47:36.039Z,19.54
2018-01-01T21:50:01.854Z,19.60
2018-01-01T21:52:27.855Z,19.56
2018-01-01T21:54:53.661Z,19.63
2018-01-01T21:57:19.478Z,19.60
2018-01-01T21:59:45.318Z,19.57
2018-01-01T22:02:11.166Z,19.50
2018-01-01T22:04:37.026Z,19.53
2018-01-01T22:07:02.882Z,19.53
2018-01-01T22:09:28.780Z,19.58
2018-01-01T22:11:54.638Z,19.52
2018-01-01T22:14:20.486Z,19.56
2018-01-01T22:16:46.298Z,19.47
2018-01-01T22:19:12.149Z,19.48
2018-01-01T22:21:38.094Z,19.47
2018-01-01T22:24:03.961Z,19.54
2018-01-01T22:26:29.774Z,19.59
2018-01-01T22:28:55.617Z,19.59
2018-01-01T22:31:21.465Z,19.58
2018-01-01T22:33:47.273Z,19.58
2018-01-01T22:36:13.122Z,19.53
2018-01-01T22:38:39.346Z,19.50
2018-01-01T22:41:05.190Z,19.59
2018-01-01T22:43:31.002Z,19.57
2018-01-01T22:45:56.854Z,19.52
2018-01-01T22:48:22.705Z,19.50
2018-01-01T22:50:48.517Z,19.62
2018-01-01T22:53:14.334Z,19.58
2018-01-01T22:55:40.149Z,19.59
2018-01-01T22:58:05.962Z,19.54
2018-01-01T23:00:31.781Z,19.56
2018-01-01T23:02:57.642Z,19.57
2018-01-01T23:05:23.638Z,19.58
2018-01-01T23:07:49.447Z,19.54
2018-01-01T23:10:15.262Z,19.61
2018-01-01T23:12:41.229Z,19.50
2018-01-01T23:15:07.086Z,19.54
2018-01-01T23:17:32.943Z,19.57
2018-01-01T23:19:58.760Z,19.64
2018-01-01T23:22:24.606Z,19.67
2018-01-01T23:24:50.419Z,19.66
2018-01-01T23:27:16.229Z,19.64
2018-01-01T23:29:42.074Z,19.58
2018-01-01T23:32:07.893Z,19.58
2018-01-01T23:34:33.699Z,19.55
2018-01-01T23:36:59.501Z,19.54
2018-01-01T23:39:25.337Z,19.58
2018-01-01T23:41:51.323Z,19.64
2018-01-01T23:44:17.388Z,19.49
2018-01-01T23:46:43.330Z,19.58
2018-01-01T23:49:09.150Z,19.54
2018-01-01T23:51:34.957Z,19.50
2018-01-01T23:54:00.814Z,19.49
2018-01-01T23:56:26.630Z,19.54
2018-01-01T23:58:52.551Z,19.56
